createdAt,value
2018-09-27T00:01:45.318Z,10.40
2018-09-27T00:04:13.593Z,10.30
2018-09-27T00:06:42.064Z,10.20
2018-09-27T00:09:10.322Z,10.10
2018-09-27T00:11:38.630Z,10.10
2018-09-27T00:14:07.367Z,10.10
2018-09-27T00:16:35.610Z,10.10
2018-09-27T00:19:04.229Z,10.20
2018-09-27T00:21:32.548Z,10.20
2018-09-27T00:24:01.144Z,10.30
2018-09-27T00:26:29.520Z,10.30
2018-09-27T00:28:57.798Z,10.30
2018-09-27T00:31:26.066Z,10.30
2018-09-27T00:33:54.468Z,10.30
2018-09-27T00:36:22.732Z,10.30
2018-09-27T00:38:51.151Z,10.40
2018-09-27T00:41:19.398Z,10.30
2018-09-27T00:43:48.153Z,10.20
2018-09-27T00:46:16.441Z,10.10
2018-09-27T00:48:44.914Z,10.10
2018-09-27T00:51:13.302Z,10.00
2018-09-27T00:53:41.742Z,10.00
2018-09-27T00:56:09.964Z,10.00
2018-09-27T00:58:38.238Z,10.00
2018-09-27T01:01:06.626Z,9.90
2018-09-27T01:03:34.953Z,9.80
2018-09-27T01:06:03.228Z,9.70
2018-09-27T01:08:31.534Z,9.70
2018-09-27T01:10:59.799Z,9.70
2018-09-27T01:13:28.142Z,9.70
2018-09-27T01:15:56.428Z,9.70
2018-09-27T01:18:26.676Z,9.60
2018-09-27T01:20:54.992Z,9.60
2018-09-27T01:23:23.253Z,9.60
2018-09-27T01:25:51.526Z,9.50
2018-09-27T01:28:19.790Z,9.50
2018-09-27T01:30:48.081Z,9.40
2018-09-27T01:33:16.355Z,9.40
2018-09-27T01:35:44.681Z,9.40
2018-09-27T01:38:12.894Z,9.40
2018-09-27T01:40:41.259Z,9.40
2018-09-27T01:43:09.468Z,9.40
2018-09-27T01:45:37.939Z,9.40
2018-09-27T01:48:06.282Z,9.40
2018-09-27T01:50:34.850Z,9.40
2018-09-27T01:53:03.100Z,9.40
2018-09-27T01:55:31.518Z,9.50
2018-09-27T01:57:59.784Z,9.40
2018-09-27T02:00:28.431Z,9.50
2018-09-27T02:02:56.789Z,9.50
2018-09-27T02:05:25.377Z,9.50
2018-09-27T02:07:54.122Z,9.40
2018-09-27T02:10:22.612Z,9.30
2018-09-27T02:12:50.862Z,9.30
2018-09-27T02:15:19.182Z,9.40
2018-09-27T02:17:47.667Z,9.30
2018-09-27T02:20:15.942Z,9.30
2018-09-27T02:22:44.217Z,9.30
2018-09-27T02:25:12.831Z,9.30
2018-09-27T02:27:41.048Z,9.20
2018-09-27T02:30:10.166Z,9.20
2018-09-27T02:32:38.421Z,9.20
2018-09-27T02:35:06.731Z,9.20
2018-09-27T02:37:35.005Z,9.10
2018-09-27T02:40:03.414Z,9.00
2018-09-27T02:42:32.289Z,9.00
2018-09-27T02:45:00.648Z,8.80
2018-09-27T02:47:28.930Z,8.70
2018-09-27T02:49:57.396Z,8.70
2018-09-27T02:52:25.666Z,8.70
2018-09-27T02:54:54.153Z,8.70
2018-09-27T02:57:22.746Z,8.60
2018-09-27T02:59:51.218Z,8.60
2018-09-27T03:02:19.514Z,8.60
2018-09-27T03:04:48.298Z,8.60
2018-09-27T03:07:16.562Z,8.60
2018-09-27T03:09:44.918Z,8.50
2018-09-27T03:12:13.169Z,8.40
2018-09-27T03:14:41.573Z,8.40
2018-09-27T03:17:09.901Z,8.50
2018-09-27T03:19:41.442Z,8.50
2018-09-27T03:22:09.722Z,8.40
2018-09-27T03:24:37.950Z,8.50
2018-09-27T03:27:06.545Z,8.40
2018-09-27T03:29:34.860Z,8.40
2018-09-27T03:32:03.469Z,8.40
2018-09-27T03:34:31.849Z,8.30
2018-09-27T03:37:00.272Z,8.20
2018-09-27T03:39:28.538Z,8.20
2018-09-27T03:41:56.900Z,8.30
2018-09-27T03:44:25.173Z,8.30
2018-09-27T03:46:54.183Z,8.30
2018-09-27T03:49:22.470Z,8.30
2018-09-27T03:51:50.870Z,8.30
2018-09-27T03:54:19.144Z,8.30
2018-09-27T03:56:47.432Z,8.30
2018-09-27T03:59:15.703Z,8.40
2018-09-27T04:01:44.305Z,8.40
2018-09-27T04:04:12.618Z,8.40
2018-09-27T04:06:41.055Z,8.40
2018-09-27T04:09:10.296Z,8.40
2018-09-27T04:11:38.787Z,8.40
2018-09-27T04:14:07.270Z,8.30
2018-09-27T04:16:35.587Z,8.30
2018-09-27T04:19:04.090Z,8.30
2018-09-27T04:21:32.330Z,8.20
2018-09-27T04:24:00.674Z,8.20
2018-09-27T04:26:29.086Z,8.20
2018-09-27T04:28:57.355Z,8.20
2018-09-27T04:31:26.418Z,8.20
2018-09-27T04:33:54.834Z,8.20
2018-09-27T04:36:23.062Z,8.10
2018-09-27T04:38:51.498Z,8.10
2018-09-27T04:41:19.852Z,8.10
2018-09-27T04:43:48.342Z,8.10
2018-09-27T04:46:16.743Z,8.10
2018-09-27T04:48:45.545Z,8.10
2018-09-27T04:51:14.015Z,8.10
2018-09-27T04:53:42.462Z,8.10
2018-09-27T04:56:11.183Z,8.20
2018-09-27T04:58:39.741Z,8.20
2018-09-27T05:01:08.041Z,8.20
2018-09-27T05:03:36.664Z,8.20
2018-09-27T05:06:05.008Z,8.20
2018-09-27T05:08:33.352Z,8.20
2018-09-27T05:11:02.089Z,8.20
2018-09-27T05:13:30.420Z,8.20
2018-09-27T05:15:58.763Z,8.10
2018-09-27T05:18:27.039Z,8.10
2018-09-27T05:20:55.894Z,8.10
2018-09-27T05:23:24.334Z,8.10
2018-09-27T05:25:54.189Z,8.10
2018-09-27T05:28:22.702Z,8.10
2018-09-27T05:30:51.152Z,8.00
2018-09-27T05:33:20.605Z,8.00
2018-09-27T05:35:49.038Z,8.10
2018-09-27T05:38:17.910Z,8.10
2018-09-27T05:40:46.403Z,8.10
2018-09-27T05:43:15.312Z,8.10
2018-09-27T05:45:43.689Z,8.20
2018-09-27T05:48:12.051Z,8.30
2018-09-27T05:50:40.592Z,8.30
2018-09-27T05:53:09.191Z,8.40
2018-09-27T05:55:37.784Z,8.40
2018-09-27T05:58:06.972Z,8.50
2018-09-27T06:00:35.520Z,8.50
2018-09-27T06:03:03.834Z,8.40
2018-09-27T06:05:32.218Z,8.50
2018-09-27T06:08:00.518Z,8.50
2018-09-27T06:10:28.832Z,8.60
2018-09-27T06:12:57.171Z,8.60
2018-09-27T06:15:26.199Z,8.70
2018-09-27T06:17:54.638Z,8.70
2018-09-27T06:20:23.796Z,8.80
2018-09-27T06:22:52.154Z,8.80
2018-09-27T06:25:20.452Z,8.90
2018-09-27T06:27:48.783Z,9.00
2018-09-27T06:30:17.235Z,9.10
2018-09-27T06:32:45.605Z,9.20
2018-09-27T06:35:14.162Z,9.40
2018-09-27T06:37:42.877Z,9.60
2018-09-27T06:40:11.291Z,9.90
2018-09-27T06:42:39.571Z,10.10
2018-09-27T06:45:08.823Z,10.50
2018-09-27T06:47:37.185Z,10.80
2018-09-27T06:50:06.126Z,11.20
2018-09-27T06:52:34.453Z,11.50
2018-09-27T06:55:03.128Z,11.90
2018-09-27T06:57:31.917Z,12.30
2018-09-27T07:00:00.609Z,12.70
2018-09-27T07:02:29.034Z,13.10
2018-09-27T07:04:57.404Z,13.50
2018-09-27T07:07:25.790Z,13.80
2018-09-27T07:09:54.190Z,14.10
2018-09-27T07:12:23.194Z,14.50
2018-09-27T07:14:51.393Z,14.80
2018-09-27T07:17:19.693Z,15.20
2018-09-27T07:19:48.239Z,15.60
2018-09-27T07:22:16.605Z,15.80
2018-09-27T07:24:45.022Z,16.10
2018-09-27T07:27:13.415Z,16.30
2018-09-27T07:29:41.961Z,16.70
2018-09-27T07:32:10.326Z,16.90
2018-09-27T07:34:39.067Z,17.20
2018-09-27T07:37:07.377Z,17.40
2018-09-27T07:39:35.958Z,17.70
2018-09-27T07:42:04.681Z,17.90
2018-09-27T07:44:33.187Z,18.20
2018-09-27T07:47:01.501Z,18.40
2018-09-27T07:49:29.973Z,18.50
2018-09-27T07:51:58.277Z,18.60
2018-09-27T07:54:26.782Z,18.80
2018-09-27T07:56:55.116Z,19.10
2018-09-27T07:59:23.575Z,19.40
2018-09-27T08:01:51.882Z,19.40
2018-09-27T08:04:20.477Z,19.30
2018-09-27T08:06:48.764Z,19.50
2018-09-27T08:09:17.203Z,19.40
2018-09-27T08:11:45.518Z,19.30
2018-09-27T08:14:13.900Z,19.10
2018-09-27T08:16:42.329Z,19.20
2018-09-27T08:19:10.671Z,19.40
2018-09-27T08:21:39.144Z,19.50
2018-09-27T08:24:07.488Z,19.70
2018-09-27T08:26:36.142Z,20.10
2018-09-27T08:29:07.322Z,20.40
2018-09-27T08:31:35.665Z,20.40
2018-09-27T08:34:04.293Z,20.70
2018-09-27T08:36:32.569Z,20.40
2018-09-27T08:39:01.016Z,20.50
2018-09-27T08:41:29.306Z,20.60
2018-09-27T08:43:57.571Z,20.60
2018-09-27T08:46:25.854Z,20.50
2018-09-27T08:48:54.257Z,20.50
2018-09-27T08:51:22.674Z,20.30
2018-09-27T08:53:51.070Z,20.30
2018-09-27T08:56:19.667Z,20.50
2018-09-27T08:58:48.062Z,20.80
2018-09-27T09:01:16.569Z,20.60
2018-09-27T09:03:45.047Z,20.70
2018-09-27T09:06:13.480Z,21.00
2018-09-27T09:08:41.812Z,21.20
2018-09-27T09:11:10.193Z,21.00
2018-09-27T09:13:38.509Z,20.80
2018-09-27T09:16:08.526Z,20.50
2018-09-27T09:18:36.888Z,20.80
2018-09-27T09:21:05.825Z,20.80
2018-09-27T09:23:34.462Z,20.50
2018-09-27T09:26:02.752Z,20.70
2018-09-27T09:28:31.052Z,20.80
2018-09-27T09:30:59.620Z,20.60
2018-09-27T09:33:27.977Z,20.80
2018-09-27T09:35:56.351Z,20.70
2018-09-27T09:38:24.830Z,20.60
2018-09-27T09:40:53.222Z,20.80
2018-09-27T09:43:21.878Z,21.00
2018-09-27T09:45:50.781Z,21.20
2018-09-27T09:48:19.142Z,21.70
2018-09-27T09:50:47.780Z,21.90
2018-09-27T09:53:16.078Z,22.10
2018-09-27T09:55:44.536Z,22.30
2018-09-27T09:58:12.873Z,22.50
2018-09-27T10:00:41.433Z,22.30
2018-09-27T10:03:09.790Z,22.60
2018-09-27T10:05:38.219Z,22.90
2018-09-27T10:08:06.575Z,23.10
2018-09-27T10:10:34.983Z,23.20
2018-09-27T10:13:03.465Z,23.30
2018-09-27T10:15:31.749Z,23.00
2018-09-27T10:18:00.383Z,23.00
2018-09-27T10:20:28.753Z,23.10
2018-09-27T10:22:57.379Z,23.40
2018-09-27T10:25:25.808Z,23.50
2018-09-27T10:27:54.388Z,23.50
2018-09-27T10:30:22.736Z,23.40
2018-09-27T10:32:51.241Z,23.40
2018-09-27T10:35:19.575Z,23.50
2018-09-27T10:37:48.143Z,23.70
2018-09-27T10:40:16.413Z,23.50
2018-09-27T10:42:45.042Z,22.70
2018-09-27T10:45:13.412Z,21.80
2018-09-27T10:47:41.797Z,21.40
2018-09-27T10:50:10.077Z,21.50
2018-09-27T10:52:38.355Z,21.30
2018-09-27T10:55:06.746Z,21.10
2018-09-27T10:57:35.003Z,21.00
2018-09-27T11:00:03.666Z,21.20
2018-09-27T11:02:31.885Z,20.90
2018-09-27T11:05:00.463Z,21.00
2018-09-27T11:07:28.946Z,20.80
2018-09-27T11:09:57.193Z,20.70
2018-09-27T11:12:25.835Z,20.70
2018-09-27T11:14:54.110Z,20.70
2018-09-27T11:17:23.256Z,20.80
2018-09-27T11:19:51.542Z,20.80
2018-09-27T11:22:19.917Z,20.70
2018-09-27T11:24:48.191Z,20.80
2018-09-27T11:27:16.466Z,20.70
2018-09-27T11:29:49.982Z,20.70
2018-09-27T11:32:23.602Z,20.60
2018-09-27T11:34:52.130Z,20.60
2018-09-27T11:37:20.405Z,20.70
2018-09-27T11:39:48.648Z,20.70
2018-09-27T11:42:16.998Z,20.70
2018-09-27T11:44:45.187Z,20.70
2018-09-27T11:47:13.475Z,20.70
2018-09-27T11:49:41.948Z,20.70
2018-09-27T11:52:10.184Z,20.70
2018-09-27T11:54:38.610Z,20.70
2018-09-27T11:57:07.038Z,20.60
2018-09-27T11:59:35.283Z,20.50
2018-09-27T12:02:03.593Z,20.50
2018-09-27T12:04:31.861Z,20.60
2018-09-27T12:07:00.235Z,20.60
2018-09-27T12:09:28.634Z,20.60
2018-09-27T12:11:58.060Z,20.60
2018-09-27T12:14:27.061Z,20.70
2018-09-27T12:16:55.376Z,20.70
2018-09-27T12:19:23.859Z,20.70
2018-09-27T12:21:52.235Z,20.70
2018-09-27T12:24:20.692Z,20.70
2018-09-27T12:26:49.041Z,20.60
2018-09-27T12:29:17.456Z,20.70
2018-09-27T12:31:45.758Z,20.70
2018-09-27T12:34:14.124Z,20.80
2018-09-27T12:36:42.432Z,20.80
2018-09-27T12:39:12.119Z,20.80
2018-09-27T12:41:40.599Z,20.80
2018-09-27T12:44:08.875Z,20.90
2018-09-27T12:46:37.471Z,21.00
2018-09-27T12:49:05.798Z,20.90
2018-09-27T12:51:34.345Z,21.00
2018-09-27T12:54:02.592Z,21.00
2018-09-27T12:56:31.121Z,21.00
2018-09-27T12:58:59.480Z,21.00
2018-09-27T13:01:27.995Z,21.00
2018-09-27T13:03:57.199Z,21.20
2018-09-27T13:06:25.537Z,21.20
2018-09-27T13:08:53.868Z,21.30
2018-09-27T13:11:22.507Z,21.30
2018-09-27T13:13:50.770Z,21.30
2018-09-27T13:16:19.124Z,21.40
2018-09-27T13:18:47.564Z,21.50
2018-09-27T13:21:15.906Z,21.50
2018-09-27T13:23:44.394Z,21.50
2018-09-27T13:26:12.688Z,21.60
2018-09-27T13:28:41.024Z,21.50
2018-09-27T13:31:09.679Z,21.50
2018-09-27T13:33:38.313Z,21.50
2018-09-27T13:36:06.614Z,21.40
2018-09-27T13:38:34.979Z,21.40
2018-09-27T13:41:03.766Z,21.40
2018-09-27T13:43:32.077Z,21.40
2018-09-27T13:46:00.420Z,21.40
2018-09-27T13:48:28.788Z,21.40
2018-09-27T13:50:57.163Z,21.40
2018-09-27T13:53:25.600Z,21.30
2018-09-27T13:55:53.845Z,21.30
2018-09-27T13:58:22.301Z,21.30
2018-09-27T14:00:50.585Z,21.30
2018-09-27T14:03:19.079Z,21.30
2018-09-27T14:05:47.548Z,21.30
2018-09-27T14:08:15.929Z,21.30
2018-09-27T14:10:44.230Z,21.40
2018-09-27T14:13:12.465Z,21.40
2018-09-27T14:15:40.745Z,21.40
2018-09-27T14:18:09.162Z,21.30
2018-09-27T14:20:37.840Z,21.30
2018-09-27T14:23:06.121Z,21.30
2018-09-27T14:25:34.564Z,21.30
2018-09-27T14:28:02.850Z,21.30
2018-09-27T14:30:31.275Z,21.20
2018-09-27T14:32:59.626Z,21.20
2018-09-27T14:35:27.956Z,21.20
2018-09-27T14:37:56.343Z,21.20
2018-09-27T14:40:24.642Z,21.20
2018-09-27T14:42:53.099Z,21.20
2018-09-27T14:45:21.410Z,21.20
2018-09-27T14:47:49.998Z,21.10
2018-09-27T14:50:18.245Z,21.10
2018-09-27T14:52:46.747Z,21.20
2018-09-27T14:55:15.128Z,21.20
2018-09-27T14:57:43.413Z,21.10
2018-09-27T15:00:11.749Z,21.10
2018-09-27T15:02:40.011Z,21.10
2018-09-27T15:05:08.380Z,21.10
2018-09-27T15:07:36.805Z,21.10
2018-09-27T15:10:05.123Z,21.10
2018-09-27T15:12:34.312Z,21.10
2018-09-27T15:15:02.592Z,21.10
2018-09-27T15:17:31.026Z,21.10
2018-09-27T15:19:59.305Z,21.00
2018-09-27T15:22:28.334Z,21.00
2018-09-27T15:24:57.307Z,21.00
2018-09-27T15:27:26.183Z,21.00
2018-09-27T15:29:54.650Z,21.00
2018-09-27T15:32:23.149Z,21.00
2018-09-27T15:34:51.412Z,21.00
2018-09-27T15:37:19.785Z,20.90
2018-09-27T15:39:48.659Z,20.90
2018-09-27T15:42:16.923Z,20.90
2018-09-27T15:44:45.371Z,20.90
2018-09-27T15:47:13.739Z,20.80
2018-09-27T15:49:42.004Z,20.80
2018-09-27T15:52:10.275Z,20.80
2018-09-27T15:54:38.513Z,20.70
2018-09-27T15:57:07.234Z,20.70
2018-09-27T15:59:35.502Z,20.60
2018-09-27T16:02:04.160Z,20.60
2018-09-27T16:04:32.561Z,20.60
2018-09-27T16:07:00.950Z,20.60
2018-09-27T16:09:29.210Z,20.50
2018-09-27T16:11:57.611Z,20.50
2018-09-27T16:14:25.941Z,20.40
2018-09-27T16:16:54.357Z,20.40
2018-09-27T16:19:22.632Z,20.40
2018-09-27T16:21:51.165Z,20.30
2018-09-27T16:24:19.525Z,20.30
2018-09-27T16:26:47.773Z,20.20
2018-09-27T16:29:16.367Z,20.30
2018-09-27T16:31:44.638Z,20.20
2018-09-27T16:34:13.645Z,20.20
2018-09-27T16:36:42.291Z,20.10
2018-09-27T16:39:10.813Z,20.00
2018-09-27T16:41:39.500Z,20.00
2018-09-27T16:44:08.059Z,19.90
2018-09-27T16:46:36.705Z,19.90
2018-09-27T16:49:05.404Z,19.80
2018-09-27T16:51:34.019Z,19.80
2018-09-27T16:56:37.702Z,19.70
2018-09-27T16:59:05.926Z,19.60
2018-09-27T17:01:34.401Z,19.50
2018-09-27T17:04:02.673Z,19.50
2018-09-27T17:06:31.002Z,19.40
2018-09-27T17:08:59.482Z,19.40
2018-09-27T17:11:27.851Z,19.30
2018-09-27T17:13:56.234Z,19.20
2018-09-27T17:16:24.494Z,19.10
2018-09-27T17:18:52.861Z,19.10
2018-09-27T17:21:21.122Z,19.00
2018-09-27T17:23:49.431Z,18.90
2018-09-27T17:26:17.901Z,18.90
2018-09-27T17:28:46.286Z,18.80
2018-09-27T17:31:14.686Z,18.70
2018-09-27T17:33:42.960Z,18.60
2018-09-27T17:36:11.401Z,18.50
2018-09-27T17:38:40.027Z,18.40
2018-09-27T17:41:09.114Z,18.40
2018-09-27T17:43:37.699Z,18.30
2018-09-27T17:46:06.674Z,18.20
2018-09-27T17:48:34.985Z,18.10
2018-09-27T17:51:03.410Z,18.00
2018-09-27T17:53:36.644Z,17.90
2018-09-27T17:56:05.139Z,17.70
2018-09-27T17:58:33.619Z,17.50
2018-09-27T18:01:01.875Z,17.50
2018-09-27T18:03:30.252Z,17.40
2018-09-27T18:05:58.538Z,17.30
2018-09-27T18:08:26.803Z,17.30
2018-09-27T18:10:55.195Z,17.20
2018-09-27T18:13:23.559Z,17.20
2018-09-27T18:15:51.956Z,17.10
2018-09-27T18:18:20.422Z,17.10
2018-09-27T18:20:48.796Z,17.00
2018-09-27T18:23:17.370Z,17.00
2018-09-27T18:25:45.980Z,16.90
2018-09-27T18:28:14.145Z,16.80
2018-09-27T18:30:42.556Z,16.70
2018-09-27T18:33:10.899Z,16.60
2018-09-27T18:35:39.198Z,16.50
2018-09-27T18:38:07.781Z,16.40
2018-09-27T18:40:35.881Z,16.40
2018-09-27T18:43:04.288Z,16.30
2018-09-27T18:45:32.585Z,16.20
2018-09-27T18:48:00.825Z,16.20
2018-09-27T18:50:29.270Z,16.20
2018-09-27T18:52:57.513Z,16.10
2018-09-27T18:55:27.048Z,16.00
2018-09-27T18:57:55.296Z,15.90
2018-09-27T19:00:23.659Z,15.80
2018-09-27T19:02:51.946Z,15.70
2018-09-27T19:05:20.200Z,15.70
2018-09-27T19:07:48.662Z,15.60
2018-09-27T19:10:16.987Z,15.50
2018-09-27T19:12:45.313Z,15.40
2018-09-27T19:15:13.902Z,15.40
2018-09-27T19:17:42.229Z,15.30
2018-09-27T19:20:10.488Z,15.30
2018-09-27T19:22:38.880Z,15.20
2018-09-27T19:25:07.113Z,15.10
2018-09-27T19:27:36.163Z,15.10
2018-09-27T19:30:04.745Z,15.00
2018-09-27T19:35:11.931Z,15.00
2018-09-27T19:37:40.272Z,15.00
2018-09-27T19:40:08.899Z,15.00
2018-09-27T19:42:37.168Z,14.90
2018-09-27T19:45:05.879Z,14.90
2018-09-27T19:47:34.268Z,14.80
2018-09-27T19:50:02.565Z,14.80
2018-09-27T19:52:31.042Z,14.70
2018-09-27T19:54:59.369Z,14.60
2018-09-27T19:57:28.159Z,14.60
2018-09-27T19:59:57.035Z,14.50
2018-09-27T20:02:25.369Z,14.50
2018-09-27T20:04:53.852Z,14.50
2018-09-27T20:07:22.158Z,14.50
2018-09-27T20:09:50.507Z,14.40
2018-09-27T20:12:18.786Z,14.40
2018-09-27T20:17:21.880Z,14.20
2018-09-27T20:19:50.181Z,14.20
2018-09-27T20:22:18.498Z,14.10
2018-09-27T20:24:46.735Z,14.10
2018-09-27T20:27:15.045Z,14.00
2018-09-27T20:29:44.136Z,14.00
2018-09-27T20:32:12.487Z,13.90
2018-09-27T20:34:41.621Z,13.90
2018-09-27T20:37:09.893Z,13.80
2018-09-27T20:39:38.370Z,13.80
2018-09-27T20:42:06.788Z,13.70
2018-09-27T20:44:35.259Z,13.70
2018-09-27T20:47:03.583Z,13.70
2018-09-27T20:49:31.906Z,13.70
2018-09-27T20:52:00.356Z,13.70
2018-09-27T20:54:29.351Z,13.60
2018-09-27T20:56:57.571Z,13.60
2018-09-27T20:59:25.835Z,13.50
2018-09-27T21:01:54.074Z,13.50
2018-09-27T21:04:22.550Z,13.50
2018-09-27T21:06:50.882Z,13.40
2018-09-27T21:09:19.163Z,13.40
2018-09-27T21:11:47.564Z,13.40
2018-09-27T21:14:15.991Z,13.40
2018-09-27T21:16:44.256Z,13.40
2018-09-27T21:19:12.656Z,13.40
2018-09-27T21:21:41.054Z,13.40
2018-09-27T21:24:09.288Z,13.40
2018-09-27T21:26:37.725Z,13.40
2018-09-27T21:29:06.100Z,13.30
2018-09-27T21:31:34.323Z,13.30
2018-09-27T21:34:02.860Z,13.10
2018-09-27T21:36:31.097Z,13.10
2018-09-27T21:38:59.521Z,13.10
2018-09-27T21:41:27.911Z,13.10
2018-09-27T21:43:56.275Z,13.00
2018-09-27T21:46:24.574Z,12.90
2018-09-27T21:48:52.871Z,12.90
2018-09-27T21:51:21.147Z,12.80
2018-09-27T21:53:49.523Z,12.80
2018-09-27T21:56:17.806Z,12.70
2018-09-27T21:58:46.328Z,12.50
2018-09-27T22:01:14.818Z,12.40
2018-09-27T22:03:43.187Z,12.30
2018-09-27T22:06:11.602Z,12.30
2018-09-27T22:08:40.077Z,12.20
2018-09-27T22:11:08.351Z,12.20
2018-09-27T22:13:36.662Z,12.30
2018-09-27T22:16:04.990Z,12.30
2018-09-27T22:18:33.215Z,12.30
2018-09-27T22:21:01.687Z,12.30
2018-09-27T22:23:29.918Z,12.40
2018-09-27T22:25:58.182Z,12.40
2018-09-27T22:28:26.571Z,12.30
2018-09-27T22:30:54.877Z,12.20
2018-09-27T22:33:23.154Z,12.20
2018-09-27T22:35:51.454Z,12.10
2018-09-27T22:38:19.702Z,12.10
2018-09-27T22:40:48.157Z,12.10
2018-09-27T22:43:16.461Z,12.10
2018-09-27T22:45:44.735Z,12.10
2018-09-27T22:48:13.083Z,12.00
2018-09-27T22:50:41.336Z,12.00
2018-09-27T22:53:09.614Z,11.90
2018-09-27T22:55:38.476Z,11.80
2018-09-27T22:58:06.727Z,11.70
2018-09-27T23:00:35.136Z,11.70
2018-09-27T23:03:03.450Z,11.70
2018-09-27T23:05:31.801Z,11.70
2018-09-27T23:08:00.116Z,11.70
2018-09-27T23:10:28.353Z,11.70
2018-09-27T23:12:56.587Z,11.70
2018-09-27T23:15:24.960Z,11.80
2018-09-27T23:17:53.190Z,11.80
2018-09-27T23:20:21.491Z,11.80
2018-09-27T23:22:49.781Z,11.90
2018-09-27T23:25:18.066Z,12.00
2018-09-27T23:27:46.406Z,12.00
2018-09-27T23:30:14.825Z,12.10
2018-09-27T23:32:43.025Z,12.10
2018-09-27T23:35:11.337Z,12.10
2018-09-27T23:37:39.729Z,12.10
2018-09-27T23:40:07.982Z,12.10
2018-09-27T23:42:36.214Z,12.20
2018-09-27T23:45:04.727Z,12.20
2018-09-27T23:47:33.041Z,12.20
2018-09-27T23:50:01.531Z,12.20
2018-09-27T23:52:30.004Z,12.20
2018-09-27T23:54:58.222Z,12.20
2018-09-27T23:57:26.464Z,12.20
2018-09-27T23:59:54.697Z,12.20
